Time;durP1;ratioP1;P1;durP2;ratioP2;P2;SDS_P1;SDS_P2;PMS_P1;PMS_P2;Temp;Humidity;BMP_temperature;BMP_pressure;BME280_temperature;BME280_humidity;BME280_pressure;Samples;Min_cycle;Max_cycle;Signal;HPM_P1;HPM_P2
2021/12/20 00:00:55;;;;;;;9.98;0.35;;;6.80;99.90;;;;;;4998408;28;20014;-77
2021/12/20 00:03:21;;;;;;;8.15;0.25;;;6.80;99.90;;;;;;4999463;28;20054;-75
2021/12/20 00:05:46;;;;;;;7.13;0.00;;;6.80;99.90;;;;;;4999543;28;20069;-77
2021/12/20 00:08:12;;;;;;;2.97;0.20;;;6.80;99.90;;;;;;4997430;28;20545;-77
2021/12/20 00:10:38;;;;;;;8.38;1.00;;;6.90;99.90;;;;;;4998505;28;20033;-77
2021/12/20 00:13:03;;;;;;;6.47;0.65;;;6.90;99.90;;;;;;4999349;28;20037;-77
2021/12/20 00:15:29;;;;;;;9.23;0.55;;;6.80;99.90;;;;;;4996482;28;20034;-77
2021/12/20 00:17:54;;;;;;;9.88;0.85;;;6.80;99.90;;;;;;4996491;28;20030;-77
2021/12/20 00:20:20;;;;;;;6.60;0.03;;;6.80;99.90;;;;;;4997760;28;20019;-77
2021/12/20 00:22:46;;;;;;;10.68;0.20;;;6.80;99.90;;;;;;4980785;28;20030;-77
2021/12/20 00:25:12;;;;;;;5.13;0.10;;;6.70;99.90;;;;;;4998055;28;20025;-77
2021/12/20 00:27:38;;;;;;;10.32;0.90;;;6.80;99.90;;;;;;4997884;28;20360;-77
2021/12/20 00:30:05;;;;;;;10.18;0.70;;;6.80;99.90;;;;;;4980146;28;20019;-77
2021/12/20 00:32:31;;;;;;;9.68;0.20;;;6.80;99.90;;;;;;5002551;28;20045;-77
2021/12/20 00:34:57;;;;;;;9.48;0.63;;;6.70;99.90;;;;;;5017752;28;20080;-76
2021/12/20 00:40:20;;;;;;;10.18;0.55;;;6.80;99.90;;;;;;5017279;28;20674;-77
2021/12/20 00:42:49;;;;;;;14.55;1.48;;;6.80;99.90;;;;;;5015672;28;20109;-77
2021/12/20 00:45:15;;;;;;;9.20;0.28;;;6.70;99.90;;;;;;5016847;28;20062;-77
2021/12/20 00:47:41;;;;;;;17.15;0.88;;;6.70;99.90;;;;;;5016747;28;20030;-77
2021/12/20 00:50:09;;;;;;;9.68;0.38;;;6.70;99.90;;;;;;5015139;28;20036;-77
2021/12/20 00:52:34;;;;;;;9.18;0.50;;;6.70;99.90;;;;;;5015120;28;20034;-76
2021/12/20 00:55:00;;;;;;;5.72;0.00;;;6.70;99.90;;;;;;5016709;28;20032;-76
2021/12/20 00:57:26;;;;;;;14.00;1.05;;;6.70;99.90;;;;;;5016553;28;20026;-76
2021/12/20 00:59:51;;;;;;;7.25;0.75;;;6.70;99.90;;;;;;5016491;28;20068;-77
2021/12/20 01:02:17;;;;;;;11.38;0.38;;;6.70;99.90;;;;;;5010054;28;20483;-76
2021/12/20 01:04:43;;;;;;;8.80;0.73;;;6.70;99.90;;;;;;5016649;28;20088;-77
2021/12/20 01:07:08;;;;;;;9.65;0.08;;;6.70;99.90;;;;;;5017031;28;20459;-77
2021/12/20 01:09:34;;;;;;;9.32;1.63;;;6.70;99.90;;;;;;5016379;28;20022;-76
2021/12/20 01:12:05;;;;;;;14.80;0.20;;;6.60;99.90;;;;;;5016253;28;20089;-76
2021/12/20 01:14:33;;;;;;;19.17;0.98;;;6.60;99.90;;;;;;5016937;28;20034;-77
2021/12/20 01:17:05;;;;;;;9.13;0.10;;;6.70;99.90;;;;;;5016357;28;20022;-77
2021/12/20 01:19:31;;;;;;;8.02;0.43;;;6.60;99.90;;;;;;4998524;28;20097;-77
2021/12/20 01:21:57;;;;;;;14.10;0.95;;;6.60;99.90;;;;;;5015998;28;20075;-77
2021/12/20 01:24:22;;;;;;;9.70;1.23;;;6.70;99.90;;;;;;5016106;28;20022;-76
2021/12/20 01:26:48;;;;;;;7.80;1.05;;;6.60;99.90;;;;;;4998592;28;20014;-77
2021/12/20 01:29:14;;;;;;;10.48;0.30;;;6.60;99.90;;;;;;4998452;28;20032;-76
2021/12/20 01:31:39;;;;;;;13.15;0.50;;;6.60;99.90;;;;;;4998459;28;20418;-76
2021/12/20 01:34:05;;;;;;;7.88;0.65;;;6.60;99.90;;;;;;5015708;28;20033;-76
2021/12/20 01:36:31;;;;;;;14.10;1.63;;;6.60;99.90;;;;;;5015452;28;20440;-76
2021/12/20 01:38:57;;;;;;;10.35;0.43;;;6.60;99.90;;;;;;5015271;28;20037;-76
2021/12/20 01:41:22;;;;;;;13.23;0.98;;;6.60;99.90;;;;;;5015260;28;20026;-77
2021/12/20 01:43:48;;;;;;;12.32;0.95;;;6.60;99.90;;;;;;5015437;28;20014;-76
2021/12/20 01:46:14;;;;;;;16.48;0.57;;;6.60;99.90;;;;;;5014008;28;20022;-76
2021/12/20 01:48:41;;;;;;;7.85;0.30;;;6.60;99.90;;;;;;5015190;28;20018;-77
2021/12/20 01:53:34;;;;;;;19.77;0.77;;;6.60;99.90;;;;;;5015022;28;20417;-77
2021/12/20 01:56:00;;;;;;;12.88;1.08;;;6.60;99.90;;;;;;5015142;28;20034;-77
2021/12/20 01:58:27;;;;;;;11.95;0.95;;;6.60;99.90;;;;;;5014968;28;20105;-76
2021/12/20 02:01:18;;;;;;;17.63;1.38;;;6.60;99.90;;;;;;5015005;28;20390;-76
2021/12/20 02:03:47;;;;;;;6.78;0.43;;;6.50;99.90;;;;;;5013619;28;20077;-77
2021/12/20 02:06:23;;;;;;;15.25;1.23;;;6.50;99.90;;;;;;5015342;28;20025;-77
2021/12/20 02:08:48;;;;;;;8.38;0.20;;;6.50;99.90;;;;;;5014917;28;20053;-77
2021/12/20 02:11:18;;;;;;;11.43;0.30;;;6.50;99.90;;;;;;4997348;28;20072;-76
2021/12/20 02:13:44;;;;;;;9.52;0.88;;;6.50;99.90;;;;;;5013298;28;20097;-76
2021/12/20 02:16:10;;;;;;;12.48;0.30;;;6.50;99.90;;;;;;4997157;28;20084;-76
2021/12/20 02:18:35;;;;;;;11.52;0.77;;;6.50;99.90;;;;;;5014589;28;20025;-77
2021/12/20 02:21:02;;;;;;;10.95;0.65;;;6.50;99.90;;;;;;5014857;28;20029;-77
2021/12/20 02:23:27;;;;;;;12.43;0.80;;;6.50;99.90;;;;;;5015042;28;20483;-76
2021/12/20 02:25:53;;;;;;;14.80;0.60;;;6.60;99.90;;;;;;5015445;28;20022;-76
2021/12/20 02:28:21;;;;;;;11.30;0.88;;;6.50;99.90;;;;;;5014517;28;20049;-77
2021/12/20 02:38:54;;;;;;;10.30;0.30;;;6.50;99.90;;;;;;5014666;28;20037;-76
2021/12/20 02:41:25;;;;;;;11.63;0.88;;;6.50;99.90;;;;;;5014267;28;20386;-76
2021/12/20 02:43:57;;;;;;;9.20;0.50;;;6.50;99.90;;;;;;5014869;28;20025;-75
2021/12/20 02:46:44;;;;;;;16.73;1.05;;;6.50;99.90;;;;;;5013586;28;20026;-77
2021/12/20 02:49:21;;;;;;;13.95;0.22;;;6.50;99.90;;;;;;5014191;28;20029;-77
2021/12/20 02:51:50;;;;;;;8.52;0.68;;;6.50;99.90;;;;;;5014414;28;20105;-77
2021/12/20 02:54:18;;;;;;;19.52;1.38;;;6.40;99.90;;;;;;5014372;28;20026;-77
2021/12/20 02:56:45;;;;;;;14.57;0.43;;;6.50;99.90;;;;;;5014302;28;20061;-76
2021/12/20 02:59:11;;;;;;;11.65;0.65;;;6.50;99.90;;;;;;5012698;28;20022;-75
2021/12/20 03:01:39;;;;;;;16.25;1.40;;;6.50;99.90;;;;;;5014837;28;20018;-77
2021/12/20 03:04:06;;;;;;;9.98;0.55;;;6.50;99.90;;;;;;5014679;28;20076;-76
2021/12/20 03:06:51;;;;;;;10.95;0.35;;;6.50;99.90;;;;;;5014216;28;20018;-76
2021/12/20 03:09:20;;;;;;;8.10;0.13;;;6.40;99.90;;;;;;5014432;28;20022;-77
2021/12/20 03:11:48;;;;;;;19.83;1.65;;;6.40;99.90;;;;;;5014418;28;20057;-76
2021/12/20 03:14:28;;;;;;;6.90;0.63;;;6.40;99.90;;;;;;5013630;28;20033;-77
2021/12/20 03:16:54;;;;;;;10.38;0.60;;;6.40;99.90;;;;;;5015251;28;20060;-77
2021/12/20 03:19:20;;;;;;;7.75;0.13;;;6.40;99.90;;;;;;5015173;28;20037;-76
2021/12/20 03:21:46;;;;;;;10.20;0.85;;;6.40;99.90;;;;;;5014382;28;20022;-76
2021/12/20 03:24:12;;;;;;;9.40;0.65;;;6.40;99.90;;;;;;5015145;28;20021;-76
2021/12/20 03:26:37;;;;;;;12.85;0.30;;;6.40;99.90;;;;;;5014974;28;20076;-77
2021/12/20 03:29:04;;;;;;;9.32;0.17;;;6.40;99.90;;;;;;4997798;28;20087;-76
2021/12/20 03:31:29;;;;;;;15.65;0.40;;;6.40;99.90;;;;;;5012900;28;20045;-77
2021/12/20 03:33:57;;;;;;;12.80;0.25;;;6.30;99.90;;;;;;5013705;28;20030;-76
2021/12/20 03:36:22;;;;;;;12.65;1.58;;;6.30;99.90;;;;;;5013705;28;20080;-76
2021/12/20 03:38:48;;;;;;;16.77;1.20;;;6.30;99.90;;;;;;5013719;28;20022;-77
2021/12/20 03:41:14;;;;;;;8.88;0.20;;;6.30;99.90;;;;;;5013904;28;20471;-77
2021/12/20 03:43:40;;;;;;;14.05;1.38;;;6.30;99.90;;;;;;5013742;28;20022;-77
2021/12/20 03:46:06;;;;;;;17.48;0.40;;;6.30;99.90;;;;;;4997020;28;20019;-77
2021/12/20 03:48:32;;;;;;;17.05;0.77;;;6.30;99.90;;;;;;5013284;28;20566;-76
2021/12/20 03:51:01;;;;;;;12.55;0.57;;;6.20;99.90;;;;;;5013558;28;20033;-76
2021/12/20 03:53:27;;;;;;;14.85;1.00;;;6.20;99.90;;;;;;5013426;28;20081;-76
2021/12/20 03:55:53;;;;;;;13.13;0.85;;;6.20;99.90;;;;;;5013270;28;20109;-76
2021/12/20 03:58:19;;;;;;;9.50;0.55;;;6.20;99.90;;;;;;5013244;28;20065;-77
2021/12/20 04:00:45;;;;;;;9.02;0.45;;;6.20;99.90;;;;;;5011848;28;20018;-77
2021/12/20 04:03:13;;;;;;;10.20;0.20;;;6.30;99.90;;;;;;5011954;28;20018;-76
2021/12/20 04:05:39;;;;;;;9.63;0.35;;;6.30;99.90;;;;;;5013250;28;20018;-76
2021/12/20 04:08:05;;;;;;;9.15;0.38;;;6.30;99.90;;;;;;5013239;28;20463;-77
2021/12/20 04:10:31;;;;;;;6.97;0.95;;;6.20;99.90;;;;;;5012937;28;20022;-76
2021/12/20 04:12:56;;;;;;;19.65;1.27;;;6.20;99.90;;;;;;4995511;28;20022;-77
2021/12/20 04:15:22;;;;;;;10.98;0.30;;;6.20;99.90;;;;;;5011903;28;20058;-77
2021/12/20 04:17:47;;;;;;;12.23;1.08;;;6.20;99.90;;;;;;5013368;28;20486;-77
2021/12/20 04:20:13;;;;;;;10.90;1.27;;;6.20;99.90;;;;;;5011691;28;20398;-76
2021/12/20 04:22:39;;;;;;;10.88;0.65;;;6.20;99.90;;;;;;5013145;28;20515;-77
2021/12/20 04:25:05;;;;;;;11.10;0.28;;;6.20;99.90;;;;;;5011866;28;20018;-76
2021/12/20 04:27:31;;;;;;;14.98;0.38;;;6.20;99.90;;;;;;4995432;28;20049;-77
2021/12/20 04:29:57;;;;;;;8.38;0.38;;;6.20;99.90;;;;;;5013163;28;20034;-77
2021/12/20 04:32:23;;;;;;;9.52;0.25;;;6.20;99.90;;;;;;5011782;28;20053;-76
2021/12/20 04:34:48;;;;;;;8.00;0.85;;;6.20;99.90;;;;;;5013010;28;20022;-77
2021/12/20 04:37:14;;;;;;;10.73;0.82;;;6.20;99.90;;;;;;4996352;28;20080;-77
2021/12/20 04:39:40;;;;;;;9.68;0.38;;;6.20;99.90;;;;;;5016589;28;20068;-77
2021/12/20 04:42:08;;;;;;;8.85;0.20;;;6.20;99.90;;;;;;4998642;28;20025;-76
2021/12/20 04:44:34;;;;;;;13.98;0.77;;;6.20;99.90;;;;;;5016340;28;20113;-76
2021/12/20 04:47:00;;;;;;;13.73;0.43;;;6.30;99.90;;;;;;4998611;28;20103;-76
2021/12/20 04:49:26;;;;;;;17.25;0.47;;;6.20;99.90;;;;;;4998343;28;20435;-76
2021/12/20 04:51:55;;;;;;;17.52;0.52;;;6.20;99.90;;;;;;4998442;28;20061;-76
2021/12/20 04:54:23;;;;;;;12.25;0.20;;;6.20;99.90;;;;;;5016092;28;20036;-76
2021/12/20 04:56:48;;;;;;;10.55;1.00;;;6.20;99.90;;;;;;5016129;28;20033;-76
2021/12/20 04:59:14;;;;;;;12.70;0.30;;;6.20;99.90;;;;;;5014660;28;20446;-77
2021/12/20 05:01:40;;;;;;;13.30;0.70;;;6.20;99.90;;;;;;5015849;28;20058;-77
2021/12/20 05:04:05;;;;;;;7.35;0.10;;;6.20;99.90;;;;;;5014521;28;20010;-76
2021/12/20 05:06:33;;;;;;;10.55;0.30;;;6.20;99.90;;;;;;5015818;28;20093;-76
2021/12/20 05:08:59;;;;;;;10.00;1.08;;;6.20;99.90;;;;;;4998300;28;20025;-76
2021/12/20 05:11:25;;;;;;;12.82;0.52;;;6.20;99.90;;;;;;5015016;28;20064;-77
2021/12/20 05:13:51;;;;;;;7.97;0.10;;;6.20;99.90;;;;;;5016084;28;20018;-76
2021/12/20 05:16:17;;;;;;;11.95;0.30;;;6.20;99.90;;;;;;4998248;28;20045;-76
2021/12/20 05:18:42;;;;;;;13.35;0.80;;;6.20;99.90;;;;;;5015795;28;20084;-76
2021/12/20 05:21:08;;;;;;;6.38;0.00;;;6.20;99.90;;;;;;5016276;28;20028;-76
2021/12/20 05:23:34;;;;;;;9.50;0.75;;;6.20;99.90;;;;;;5016233;28;20471;-77
2021/12/20 05:25:59;;;;;;;5.75;0.20;;;6.20;99.90;;;;;;5014683;28;20604;-76
2021/12/20 05:28:25;;;;;;;7.03;0.75;;;6.20;99.90;;;;;;5007607;28;20036;-77
2021/12/20 05:30:52;;;;;;;11.32;1.45;;;6.30;99.90;;;;;;5015800;28;20022;-77
2021/12/20 05:33:18;;;;;;;11.13;0.52;;;6.20;99.90;;;;;;5015774;28;20022;-77
2021/12/20 05:35:44;;;;;;;11.13;0.45;;;6.30;99.90;;;;;;5015372;28;20483;-77
2021/12/20 05:38:10;;;;;;;10.02;0.73;;;6.20;99.90;;;;;;5015412;28;20033;-77
2021/12/20 05:40:36;;;;;;;5.55;0.20;;;6.20;99.90;;;;;;5015490;28;20510;-77
2021/12/20 05:43:03;;;;;;;3.97;0.50;;;6.20;99.90;;;;;;5015533;28;20018;-77
2021/12/20 05:45:28;;;;;;;5.72;0.40;;;6.20;99.90;;;;;;4997642;28;20026;-77
2021/12/20 05:47:54;;;;;;;5.35;0.77;;;6.20;99.90;;;;;;5015011;28;20030;-76
2021/12/20 05:50:21;;;;;;;6.22;0.10;;;6.20;99.90;;;;;;5014133;28;20022;-76
2021/12/20 05:52:47;;;;;;;10.93;0.43;;;6.20;99.90;;;;;;5014977;28;20037;-77
2021/12/20 05:55:13;;;;;;;10.98;1.95;;;6.10;99.90;;;;;;4997572;28;20096;-77
2021/12/20 05:57:38;;;;;;;9.82;0.52;;;6.10;99.90;;;;;;5014970;28;20081;-77
2021/12/20 06:00:08;;;;;;;10.80;0.45;;;6.10;99.90;;;;;;5014703;28;20029;-76
2021/12/20 06:02:34;;;;;;;7.57;0.50;;;6.10;99.90;;;;;;5014795;28;20018;-77
2021/12/20 06:05:00;;;;;;;6.90;0.20;;;6.10;99.90;;;;;;5014755;28;20483;-77
2021/12/20 06:07:25;;;;;;;18.15;0.90;;;6.10;99.90;;;;;;5015472;28;20581;-77
2021/12/20 06:09:51;;;;;;;9.35;0.28;;;6.00;99.90;;;;;;5014938;28;20037;-77
2021/12/20 06:12:17;;;;;;;7.80;0.75;;;6.00;99.90;;;;;;5015035;28;20479;-77
2021/12/20 06:14:42;;;;;;;7.05;0.38;;;6.10;99.90;;;;;;5015169;28;20478;-77
2021/12/20 06:17:08;;;;;;;7.82;0.10;;;6.00;99.90;;;;;;5016255;28;20030;-77
2021/12/20 06:19:34;;;;;;;3.15;0.55;;;5.90;99.90;;;;;;5014746;28;20056;-76
2021/12/20 06:22:00;;;;;;;11.32;0.65;;;5.90;99.90;;;;;;5014919;28;20029;-77
2021/12/20 06:24:25;;;;;;;5.63;0.20;;;5.90;99.90;;;;;;5015123;28;20370;-77
2021/12/20 06:26:51;;;;;;;10.88;0.90;;;5.80;99.90;;;;;;5014766;28;20505;-75
2021/12/20 06:29:18;;;;;;;9.77;0.60;;;5.80;99.90;;;;;;5014617;28;20145;-75
2021/12/20 06:31:44;;;;;;;5.85;0.52;;;5.80;99.90;;;;;;4997056;28;20168;-76
2021/12/20 06:34:09;;;;;;;6.35;0.55;;;5.80;99.90;;;;;;4997154;28;20050;-76
2021/12/20 06:36:35;;;;;;;9.25;0.20;;;5.70;99.90;;;;;;5014486;28;20525;-76
2021/12/20 06:39:02;;;;;;;13.25;0.55;;;5.70;99.90;;;;;;4996798;28;20386;-76
2021/12/20 06:41:28;;;;;;;7.70;0.82;;;5.60;99.90;;;;;;5014231;28;20018;-77
2021/12/20 06:43:54;;;;;;;5.47;0.32;;;5.50;99.90;;;;;;5014629;28;20033;-77
2021/12/20 06:46:21;;;;;;;6.53;0.32;;;5.50;99.90;;;;;;5014346;28;20025;-76
2021/12/20 06:48:46;;;;;;;9.32;0.10;;;5.40;99.90;;;;;;5014150;28;20025;-75
2021/12/20 06:51:12;;;;;;;7.60;0.40;;;5.30;99.90;;;;;;4996342;28;20192;-76
2021/12/20 06:53:37;;;;;;;4.53;0.15;;;5.30;99.90;;;;;;4996455;28;20037;-76
2021/12/20 06:56:03;;;;;;;3.63;0.10;;;5.20;99.90;;;;;;4996400;28;20506;-76
2021/12/20 06:58:29;;;;;;;3.90;0.43;;;5.30;99.90;;;;;;4996796;28;20036;-77
2021/12/20 07:00:54;;;;;;;7.50;0.35;;;5.30;99.90;;;;;;4995896;28;20018;-76
2021/12/20 07:03:22;;;;;;;7.80;0.52;;;5.20;99.90;;;;;;4996460;28;20097;-76
2021/12/20 07:05:48;;;;;;;5.55;0.17;;;5.20;99.90;;;;;;5014024;28;20022;-76
2021/12/20 07:08:15;;;;;;;6.95;0.10;;;5.30;99.90;;;;;;5014111;28;20032;-76
2021/12/20 07:10:41;;;;;;;7.88;0.10;;;5.20;99.90;;;;;;5013997;28;20487;-76
2021/12/20 07:13:08;;;;;;;8.07;0.85;;;5.30;99.90;;;;;;4996306;28;20029;-76
2021/12/20 07:15:34;;;;;;;6.65;0.30;;;5.30;99.90;;;;;;4996213;28;20395;-76
2021/12/20 07:17:59;;;;;;;6.38;0.35;;;5.30;99.90;;;;;;5014467;28;20026;-77
2021/12/20 07:20:25;;;;;;;13.32;0.55;;;5.30;99.90;;;;;;5013642;28;20057;-77
2021/12/20 07:22:51;;;;;;;8.25;0.95;;;5.30;99.90;;;;;;5014622;28;20045;-76
2021/12/20 07:25:18;;;;;;;7.18;1.13;;;5.30;99.90;;;;;;5014719;28;20481;-76
2021/12/20 07:27:46;;;;;;;4.70;0.10;;;5.30;99.90;;;;;;4996577;28;20525;-77
2021/12/20 07:30:12;;;;;;;11.07;0.03;;;5.40;99.90;;;;;;5012707;28;20399;-77
2021/12/20 07:32:38;;;;;;;7.78;0.20;;;5.40;99.90;;;;;;5014078;28;20029;-76
2021/12/20 07:35:04;;;;;;;4.40;0.00;;;5.40;99.90;;;;;;5014080;28;20548;-76
2021/12/20 07:37:29;;;;;;;5.22;0.57;;;5.40;99.90;;;;;;4996270;28;20036;-76
2021/12/20 07:39:55;;;;;;;7.88;0.10;;;5.40;99.90;;;;;;5013906;28;20025;-77
2021/12/20 07:42:21;;;;;;;8.00;0.68;;;5.40;99.90;;;;;;5012942;28;20018;-76
2021/12/20 07:44:46;;;;;;;5.57;0.50;;;5.40;99.90;;;;;;5013530;28;20030;-76
2021/12/20 07:47:12;;;;;;;8.65;0.10;;;5.40;99.90;;;;;;5012653;28;20022;-76
2021/12/20 07:49:38;;;;;;;13.40;0.63;;;5.40;99.90;;;;;;4996927;28;20026;-76
2021/12/20 07:52:04;;;;;;;7.18;0.25;;;5.40;99.90;;;;;;5014092;28;20036;-76
2021/12/20 07:54:30;;;;;;;8.40;0.22;;;5.40;99.90;;;;;;5014573;28;20262;-78
2021/12/20 07:56:57;;;;;;;9.07;0.10;;;5.40;99.90;;;;;;5013818;28;20022;-76
2021/12/20 07:59:22;;;;;;;4.63;0.00;;;5.40;99.90;;;;;;5014072;28;20034;-78
2021/12/20 08:01:49;;;;;;;7.00;0.65;;;5.50;99.90;;;;;;4996002;28;20458;-78
2021/12/20 08:04:15;;;;;;;9.85;0.80;;;5.50;99.90;;;;;;4995928;28;20022;-77
2021/12/20 08:06:43;;;;;;;1.48;0.00;;;5.50;99.90;;;;;;4996538;28;20168;-78
2021/12/20 08:09:10;;;;;;;8.38;0.80;;;5.50;99.90;;;;;;4995998;28;20025;-78
2021/12/20 08:11:36;;;;;;;4.78;0.63;;;5.50;99.90;;;;;;5013459;28;20038;-78
2021/12/20 08:14:02;;;;;;;4.10;0.50;;;5.50;99.90;;;;;;5017981;28;20433;-77
2021/12/20 08:16:27;;;;;;;8.07;0.63;;;5.50;99.90;;;;;;5017142;28;20081;-76
2021/12/20 08:18:53;;;;;;;6.00;0.20;;;5.50;99.90;;;;;;5017206;28;20030;-78
2021/12/20 08:21:18;;;;;;;9.50;1.42;;;5.60;99.90;;;;;;5017844;28;20018;-77
2021/12/20 08:23:44;;;;;;;6.32;0.32;;;5.60;99.90;;;;;;5016949;28;20030;-78
2021/12/20 08:26:10;;;;;;;5.80;0.00;;;5.60;99.90;;;;;;4999405;28;20021;-77
2021/12/20 08:28:36;;;;;;;10.60;0.85;;;5.60;99.90;;;;;;4999287;28;20014;-77
2021/12/20 08:31:07;;;;;;;3.85;0.00;;;5.70;99.90;;;;;;4998836;28;20030;-77
2021/12/20 08:33:33;;;;;;;4.43;0.25;;;5.70;99.90;;;;;;5012456;28;20394;-77
2021/12/20 08:36:04;;;;;;;7.00;0.43;;;5.70;99.90;;;;;;5016668;28;20097;-77
2021/12/20 08:38:30;;;;;;;6.68;0.10;;;5.70;99.90;;;;;;4999087;28;20099;-77
2021/12/20 08:40:57;;;;;;;13.73;1.27;;;5.80;99.90;;;;;;4998807;28;20475;-77
2021/12/20 08:43:22;;;;;;;5.05;0.10;;;5.80;99.90;;;;;;4998861;28;20049;-77
2021/12/20 08:45:49;;;;;;;10.65;0.30;;;5.90;99.90;;;;;;5016450;28;20022;-77
2021/12/20 08:48:14;;;;;;;8.40;0.80;;;5.90;99.90;;;;;;5016111;28;20629;-77
2021/12/20 08:50:41;;;;;;;8.65;0.90;;;6.00;99.90;;;;;;5016296;28;20057;-77
2021/12/20 08:53:10;;;;;;;6.68;1.02;;;6.00;99.90;;;;;;5014981;28;20121;-77
2021/12/20 08:55:36;;;;;;;6.18;0.20;;;6.00;99.90;;;;;;4998600;28;20502;-77
2021/12/20 08:58:03;;;;;;;5.55;0.70;;;6.10;99.90;;;;;;5016466;28;20467;-77
2021/12/20 09:00:30;;;;;;;10.57;0.52;;;6.10;99.90;;;;;;5015159;28;20076;-77
2021/12/20 09:02:57;;;;;;;6.00;0.17;;;6.20;99.90;;;;;;4998769;28;20014;-77
2021/12/20 09:05:24;;;;;;;9.27;0.57;;;6.20;99.90;;;;;;4998468;28;20021;-77
2021/12/20 09:07:50;;;;;;;4.80;0.85;;;6.20;99.90;;;;;;5014877;28;20478;-77
2021/12/20 09:10:16;;;;;;;8.57;0.40;;;6.30;99.90;;;;;;5014692;28;20080;-77
2021/12/20 09:12:43;;;;;;;3.47;0.20;;;6.30;99.90;;;;;;5015999;28;20030;-77
2021/12/20 09:15:15;;;;;;;8.23;0.25;;;6.30;99.90;;;;;;4998343;28;20430;-77
2021/12/20 09:17:41;;;;;;;9.57;0.40;;;6.40;99.90;;;;;;5014699;28;20025;-76
2021/12/20 09:20:08;;;;;;;5.53;0.80;;;6.40;99.90;;;;;;5014329;28;20108;-76
2021/12/20 09:22:39;;;;;;;5.60;0.20;;;6.40;99.90;;;;;;5014314;28;20395;-76
2021/12/20 09:25:06;;;;;;;6.22;0.10;;;6.40;99.90;;;;;;5015981;28;20034;-76
2021/12/20 09:27:32;;;;;;;7.22;0.60;;;6.40;99.90;;;;;;5015596;28;20045;-76
2021/12/20 09:29:58;;;;;;;7.25;0.38;;;6.40;99.90;;;;;;5014566;28;20034;-76
2021/12/20 09:32:23;;;;;;;11.65;0.28;;;6.50;99.90;;;;;;4998395;28;20033;-76
2021/12/20 09:34:49;;;;;;;6.72;0.00;;;6.50;99.90;;;;;;5015949;28;20022;-76
2021/12/20 09:37:14;;;;;;;7.88;1.25;;;6.50;99.90;;;;;;5016070;28;20054;-76
2021/12/20 09:39:42;;;;;;;4.03;0.00;;;6.60;99.90;;;;;;5015898;28;20491;-76
2021/12/20 09:42:10;;;;;;;8.25;0.38;;;6.60;99.90;;;;;;4997379;28;20034;-76
2021/12/20 09:44:35;;;;;;;4.40;0.00;;;6.60;99.90;;;;;;4998264;28;20033;-76
2021/12/20 09:47:03;;;;;;;7.80;0.10;;;6.60;99.90;;;;;;5016111;28;20014;-76
2021/12/20 09:49:30;;;;;;;6.10;0.15;;;6.60;99.90;;;;;;5014440;28;20022;-76
2021/12/20 09:51:57;;;;;;;10.40;0.15;;;6.70;99.90;;;;;;5015194;28;20022;-77
2021/12/20 09:54:23;;;;;;;6.50;0.28;;;6.70;99.90;;;;;;4998170;28;20084;-77
2021/12/20 09:56:52;;;;;;;5.00;0.30;;;6.70;99.90;;;;;;5015090;28;20378;-76
2021/12/20 09:59:19;;;;;;;8.10;0.57;;;6.80;99.90;;;;;;4997678;28;21992;-76
2021/12/20 10:01:47;;;;;;;7.35;0.22;;;6.80;99.90;;;;;;5015638;28;20021;-76
2021/12/20 10:04:13;;;;;;;5.72;0.32;;;6.80;99.90;;;;;;5016007;28;20037;-77
2021/12/20 10:06:39;;;;;;;12.18;0.73;;;6.80;99.90;;;;;;5015434;28;20018;-76
2021/12/20 10:09:12;;;;;;;9.15;0.50;;;6.90;99.90;;;;;;4997641;28;20549;-76
2021/12/20 10:11:38;;;;;;;6.85;0.63;;;6.90;99.90;;;;;;5015287;28;20017;-76
2021/12/20 10:14:10;;;;;;;5.07;0.13;;;7.00;99.90;;;;;;5015253;28;20022;-76
2021/12/20 10:16:38;;;;;;;7.30;0.45;;;7.00;99.90;;;;;;5015166;28;20026;-77
2021/12/20 10:19:29;;;;;;;3.87;0.00;;;7.10;99.90;;;;;;4997299;28;20116;-76
2021/12/20 10:21:57;;;;;;;11.00;0.88;;;7.10;99.90;;;;;;5014722;28;20776;-77
2021/12/20 10:24:38;;;;;;;4.70;0.65;;;7.10;99.90;;;;;;4997082;28;20021;-76
2021/12/20 10:27:04;;;;;;;16.02;1.70;;;7.10;99.90;;;;;;5014782;28;20109;-75
2021/12/20 10:29:35;;;;;;;3.33;0.30;;;7.10;99.90;;;;;;5014729;28;20041;-76
2021/12/20 10:32:01;;;;;;;6.00;0.15;;;7.20;99.90;;;;;;4997186;28;20026;-76
2021/12/20 10:34:34;;;;;;;6.43;1.35;;;7.10;99.90;;;;;;5014416;28;20033;-77
2021/12/20 10:37:02;;;;;;;4.00;0.10;;;7.20;99.90;;;;;;5013383;28;20036;-76
2021/12/20 10:39:37;;;;;;;7.82;1.17;;;7.20;99.90;;;;;;5014518;28;20104;-77
2021/12/20 10:42:19;;;;;;;6.85;0.95;;;7.30;99.90;;;;;;4996836;28;20026;-77
2021/12/20 10:45:04;;;;;;;7.75;0.10;;;7.40;99.90;;;;;;5014505;28;20097;-76
2021/12/20 10:47:30;;;;;;;8.40;0.28;;;7.50;99.90;;;;;;5012954;28;20018;-76
2021/12/20 10:49:55;;;;;;;6.60;0.20;;;7.60;99.90;;;;;;5014766;28;20360;-76
2021/12/20 10:52:31;;;;;;;4.97;0.00;;;7.60;99.90;;;;;;5014177;28;20371;-77
2021/12/20 10:54:57;;;;;;;4.80;0.60;;;7.70;99.90;;;;;;5014476;28;20032;-76
2021/12/20 10:57:28;;;;;;;4.38;0.00;;;7.80;99.90;;;;;;5015360;28;20475;-75
2021/12/20 11:00:17;;;;;;;5.47;0.10;;;7.80;99.90;;;;;;5007021;28;20467;-76
2021/12/20 11:03:26;;;;;;;7.05;0.10;;;7.80;99.90;;;;;;5007050;28;20018;-77
2021/12/20 11:11:20;;;;;;;7.88;0.75;;;7.90;99.90;;;;;;4995985;28;20073;-76
2021/12/20 11:13:46;;;;;;;2.10;0.10;;;7.90;99.90;;;;;;4994830;28;20026;-74
2021/12/20 11:16:41;;;;;;;4.63;0.28;;;7.90;99.90;;;;;;4998646;28;20030;-76
2021/12/20 11:19:06;;;;;;;3.53;0.35;;;7.90;99.90;;;;;;4975525;28;20038;-77
2021/12/20 11:21:34;;;;;;;2.40;0.10;;;8.00;99.90;;;;;;5013955;28;20037;-76
2021/12/20 11:24:00;;;;;;;4.55;0.20;;;7.90;99.90;;;;;;5012832;28;20026;-75
2021/12/20 11:26:27;;;;;;;2.83;0.00;;;7.90;99.90;;;;;;5013568;28;20018;-77
2021/12/20 11:28:56;;;;;;;4.72;0.03;;;7.90;99.90;;;;;;5012898;28;20067;-75
2021/12/20 11:31:23;;;;;;;1.75;0.03;;;8.00;99.90;;;;;;5012518;28;20115;-77
2021/12/20 11:33:48;;;;;;;5.72;0.43;;;7.90;99.90;;;;;;5014403;28;20122;-75
2021/12/20 11:36:14;;;;;;;1.58;0.00;;;7.90;99.90;;;;;;5014005;28;20088;-75
2021/12/20 11:38:40;;;;;;;9.15;0.60;;;7.90;99.90;;;;;;5014396;28;20029;-77
2021/12/20 11:41:06;;;;;;;2.55;0.10;;;7.90;99.90;;;;;;4997027;28;20037;-76
2021/12/20 11:43:33;;;;;;;7.90;0.10;;;7.90;99.90;;;;;;5014478;28;20029;-75
2021/12/20 11:45:59;;;;;;;3.47;0.00;;;7.90;99.90;;;;;;4997493;28;20463;-76
2021/12/20 11:48:28;;;;;;;8.85;0.85;;;7.90;99.90;;;;;;5017520;28;20026;-77
2021/12/20 11:50:58;;;;;;;6.97;0.40;;;7.90;99.90;;;;;;5016836;28;20045;-77
2021/12/20 11:53:24;;;;;;;6.90;0.00;;;7.90;99.90;;;;;;5017065;28;20105;-76
2021/12/20 11:55:52;;;;;;;2.83;0.00;;;8.00;99.90;;;;;;5016755;28;20113;-78
2021/12/20 11:58:25;;;;;;;3.92;0.25;;;8.00;99.90;;;;;;5016477;28;20034;-77
2021/12/20 12:00:52;;;;;;;5.43;0.80;;;8.00;99.90;;;;;;5017006;28;20056;-76
2021/12/20 12:03:19;;;;;;;8.30;0.08;;;8.00;99.90;;;;;;4998790;28;20067;-76
2021/12/20 12:05:52;;;;;;;4.90;0.03;;;8.00;99.90;;;;;;5017899;28;20485;-76
2021/12/20 12:08:30;;;;;;;2.25;0.10;;;8.00;99.90;;;;;;5018141;28;20026;-77
2021/12/20 12:11:16;;;;;;;5.93;0.10;;;8.00;99.90;;;;;;5000304;28;20094;-76
2021/12/20 12:13:49;;;;;;;4.40;0.00;;;8.00;99.90;;;;;;5000263;28;20077;-77
2021/12/20 12:16:31;;;;;;;2.92;0.05;;;8.00;99.90;;;;;;5000442;28;20026;-76
2021/12/20 12:19:02;;;;;;;9.02;0.30;;;8.00;99.90;;;;;;5018078;28;20029;-76
2021/12/20 12:21:39;;;;;;;4.15;0.73;;;8.00;99.90;;;;;;5017671;28;20034;-77
2021/12/20 12:24:14;;;;;;;4.63;1.00;;;8.00;99.90;;;;;;5017843;28;20098;-76
2021/12/20 12:26:44;;;;;;;3.58;0.00;;;8.00;99.90;;;;;;5017559;28;20029;-76
2021/12/20 12:29:22;;;;;;;1.20;0.00;;;8.00;99.90;;;;;;5017448;28;20083;-76
2021/12/20 12:31:54;;;;;;;4.38;0.30;;;8.00;99.90;;;;;;5016534;28;20375;-77
2021/12/20 12:34:21;;;;;;;2.67;0.00;;;8.00;99.90;;;;;;5000005;28;20503;-77
2021/12/20 12:36:47;;;;;;;0.95;0.28;;;8.10;99.90;;;;;;5017580;28;20025;-76
2021/12/20 12:39:22;;;;;;;5.18;0.20;;;8.00;99.80;;;;;;5017782;28;20087;-74
2021/12/20 12:41:54;;;;;;;2.38;0.00;;;8.10;99.90;;;;;;5017208;28;20475;-74
2021/12/20 12:44:22;;;;;;;5.80;0.13;;;8.00;99.90;;;;;;5018173;28;20499;-76
2021/12/20 12:46:55;;;;;;;4.45;0.00;;;8.00;99.90;;;;;;5000038;28;20141;-77
2021/12/20 12:49:31;;;;;;;4.53;0.08;;;8.00;99.90;;;;;;5017375;28;20033;-76
2021/12/20 12:52:22;;;;;;;1.90;0.00;;;8.10;99.90;;;;;;5016846;28;20021;-76
2021/12/20 12:55:02;;;;;;;5.68;0.52;;;8.10;99.90;;;;;;5005878;28;20041;-76
2021/12/20 12:57:29;;;;;;;2.20;0.00;;;8.10;99.90;;;;;;4999243;28;20022;-75
2021/12/20 12:59:56;;;;;;;2.17;0.10;;;8.10;99.90;;;;;;5017264;28;20058;-75
2021/12/20 13:02:23;;;;;;;5.60;0.17;;;8.10;99.90;;;;;;5017796;28;20589;-77
2021/12/20 13:04:53;;;;;;;2.92;0.25;;;8.10;99.90;;;;;;5017518;28;20025;-74
2021/12/20 13:07:23;;;;;;;6.30;0.47;;;8.20;99.90;;;;;;5017283;28;20076;-74
2021/12/20 13:09:51;;;;;;;8.50;0.40;;;8.10;99.90;;;;;;5015614;28;20026;-76
2021/12/20 13:13:13;;;;;;;1.60;0.00;;;8.10;99.90;;;;;;5016361;28;20062;-76
2021/12/20 13:15:42;;;;;;;4.50;0.28;;;8.10;99.90;;;;;;5001469;28;20049;-76